Main page
METAR-TAF:

METAR-TAF

Airports :

Metropolis Municipal Airport

Metropolis, Illinois, United States

latitude: 37-11-09N, longitude: 088-45-02W, elevation: 384 ft

Current weather observation

The report was made 38 minutes ago, at 01:35 UTC
Calm wind
Temperature 79°F
Humidity 70%
Pressure 29.93 in. Hg
Visibility: 10 miles
Clear sky

METAR: KM30 250135Z AUTO 00000KT 10SM CLR 26/20 A2993 RMK AO2 T02570201

Time: 21:13 (02:13 UTC)


TAF: missing

Weather observations and forecasts of more than 4000 airports (METAR and TAF reports).

The available stations are represented by yellow and red dots on the map.

Hover mouse over dot to see the name of the station.

Then click to see weather observations and forecasts.

To change the map : click on the green buttons with a black cross to zoom in, on the green button with a dash to zoom out, or on the green arrows for adjacent maps.


METAR-TAF: